Terminal Aerodrome Forecast
Issued by NWS Paducah, KY

Home | Current Version | Previous Version | Text Only | Print | Product List | Glossary On
Versions: 1 2 3 4 5 6 7 8 9 10 11 12 13 14 15 16 17 18 19 20 21 22 23 24 25 26 27 28
003
FTUS43 KPAH 180657 AAA
TAFPAH
TAF AMD
KPAH 180657Z 1807/1906 00000KT 1/4SM FZFG VV002
      TEMPO 1807/1810 1SM BR
     FM181400 10003KT 2SM BR FEW200
     FM181500 12008KT P6SM SCT200
     FM181800 14008KT P6SM SCT200
     FM190000 16009KT P6SM SCT035 SCT100
     FM190300 18010KT P6SM BKN030=

USA.gov is the U.S. government's official web portal to all federal, state and local government web resources and services.